FNUG

Uige Airport

Uige, Angola
METAR FNUG 271100Z 15006KT 9999 SCT020 27/21 Q1016
Observed Flight Rules
May-27 @ 11:00 UTC (an hour ago) Visual Flight Rules
Wind Visibility Clouds
150° at 6 knots 10,000+ meters
  • Scattered at 2,000' AGL
Temperatures Readings
Current 27°C / 81°F
Dewpoint 21°C / 70°F
Humidity 70%
Altimeter 30" Hg
Pressure 1016 hPa
Elevation 829
METAR FNUG 271100Z 15006KT 9999 SCT020 27/21 Q1016
Observed Flight Rules
May-27 @ 11:00 UTC
(an hour ago)
VFR
Wind Visibility
150° at 6 knots 10,000+ meters
Clouds
  • Scattered at 2,000' AGL
Temperature Dewpoint
27°C / 81°F 21°C / 70°F
Humidity Altimeter Pressure
70% 30" Hg 1016 hPa